Hurbanovo, Slovakia

1:04 PM CET on March 02, 2015 (GMT +0100)
Nové Zámky | Change Station
CLOSE
Current Station
Personal Weather Station
Location: Nov Zmky, NITRIANSKY KRAJ
Elevation: 394 ft
Nearby Weather Stations

Elev 394 ft 47.98 °N, 18.15 °E | Updated 3 seconds ago

Overcast
Overcast
51.9 °F
Feels Like 51.9 °F
N
5.1
Wind Variable Wind from WSW
Gusts 8.1 mph

Today
High -- | Low -- °F
--% Chance of Precip.
Yesterday
High -- | Low -- °F
Precip. -- in
6:27 AM 5:32 PM
Waxing Gibbous, 91% visible
Pressure 29.65 in
Visibility 6.2 miles
Clouds Mostly Cloudy 3800 ft
Dew Point 44 °F
Humidity 75%
Rainfall 0.00 in
Snow Depth Not available.
UV 2 out of 12
Pollen Not available.
Air Quality Not available.
Flu Activity Not available.
METAR LZIB 021200Z 23011KT 9999 -RA BKN038 10/05 Q1004 TEMPO RA

More Conditions Fewer Conditions

Pressure 29.65 in
Visibility 6.2 miles
Clouds Mostly Cloudy 3800 ft
Dew Point 44 °F
Humidity 75%
Rainfall 0.00 in
Snow Depth Not available.
UV 2 out of 12
Pollen Not available.
Air Quality Not available.
Flu Activity Not available.
METAR LZIB 021200Z 23011KT 9999 -RA BKN038 10/05 Q1004 TEMPO RA

More Conditions Fewer Conditions

10-Day Weather Forecast

Almanac

Astronomy

Mar. 02, 2015 Rise Set
Actual Time
Civil Twilight
Nautical Twilight
Astronomical Twilight
Moon
Length of Visible Light
Length of Day
Tomorrow will be .
, % of the Moon is Illuminated

Today's Extremes

Country Highs Country Lows

Community

WunderPhotos

Upload Photos

1,801,761 photos uploaded!

WunderBlogs® & News

Nearby

Air Quality

  Air Quality AQ Index Pollutant
Not available.

Snow Depth

Station Depth Elevation

Earthquake Activity

City Distance Mag. Time & Date
Minimum magnitude displayed is 2.5.

Coastal Water Temperatures

Place Temperature

Nearby Weather Stations